OOCL Genoa — VROK9 — position and weather

sailwx.info

Track history (hours):
 
Tides and Currents Weather Stations Pressure Air Temp Water Temp Dewpoint Dewpoint Depression Visibility Wind Speed Wind Dir Waves Ship Positions

OOCL Genoa

Last reported at 2017-Oct-18 23:28 UTC. Time now 2017-Oct-18 23:58 UTC.
Position N 22°35' E 114°17'.

Length 334 m; draft 10.3 m.

Type: Cargo ship. MMSI: 477454900.

Date/timePositionNaut miles runAvg speedWind from/ knotsBaromVisibWave heightAir tempDewpointWater temp
2017-Oct-18 23:28N 22°35' E 114°17'0 0.0
2017-Oct-18 22:58N 22°35' E 114°17'0 0.0
2017-Oct-18 22:28N 22°35' E 114°17'0 0.1
2017-Oct-18 21:58N 22°35' E 114°17'0 0.1
2017-Oct-18 21:28N 22°35' E 114°17'0 0.1
2017-Oct-18 20:58N 22°35' E 114°17'0 0.1
2017-Oct-18 20:28N 22°35' E 114°17'0 0.0
2017-Oct-18 19:55N 22°35' E 114°17'0 0.0
2017-Oct-18 19:28N 22°35' E 114°17'0 0.1
2017-Oct-18 18:58N 22°35' E 114°17'0 0.1
2017-Oct-18 18:25N 22°35' E 114°17'0 0.1
2017-Oct-18 17:58N 22°35' E 114°17'0 0.1
2017-Oct-18 17:28N 22°35' E 114°17'0 0.1
2017-Oct-18 16:58N 22°35' E 114°17'0 0.0
2017-Oct-18 16:25N 22°35' E 114°17'0 0.0
2017-Oct-18 15:58N 22°35' E 114°17'0 0.0
2017-Oct-18 15:28N 22°35' E 114°17'0 0.1
2017-Oct-18 14:58N 22°35' E 114°17'0 0.0
2017-Oct-18 13:58N 22°35' E 114°17'0 0.0
2017-Oct-18 13:28N 22°35' E 114°17'0 0.0
2017-Oct-18 12:58N 22°35' E 114°17'0 0.1
2017-Oct-18 12:28N 22°35' E 114°17'0 0.1
2017-Oct-18 11:58N 22°35' E 114°17'0 0.1
2017-Oct-18 11:30N 22°35' E 114°17'2 3.1
2017-Oct-18 11:00N 22°34' E 114°18'510.1
2017-Oct-18 10:30N 22°33' E 114°23'611.9
2017-Oct-18 10:01N 22°28' E 114°27'4 8.3
2017-Oct-18 09:30N 22°24' E 114°27'5 9.6
2017-Oct-18 09:00N 22°19' E 114°28'510.4
2017-Oct-18 08:30N 22°14' E 114°25'510.8
2017-Oct-18 08:00N 22°09' E 114°24'510.2
2017-Oct-18 07:30N 22°06' E 114°19'2 0.2
2017-Oct-17 22:38N 22°05' E 114°18'18 8.3
2017-Oct-17 20:30N 22°20' E 114°07'7 0.5
2017-Oct-17 04:58N 22°21' E 113°60'711.0
2017-Oct-17 04:22N 22°24' E 113°53'3 5.2
2017-Oct-17 03:42N 22°27' E 113°53'0 0.0
2017-Oct-16 18:16N 22°27' E 113°53'0 0.1
2017-Oct-16 17:19N 22°27' E 113°53'0 1.1
2017-Oct-16 16:59N 22°27' E 113°53'3 6.4
2017-Oct-16 16:30N 22°24' E 113°54'  
2017-Oct-09 06:47N 22°28' E 119°50'518.3
2017-Oct-09 06:30N 22°30' E 119°55'918.6
2017-Oct-09 06:00N 22°32' E 120°04'918.9
2017-Oct-09 05:30N 22°33' E 120°15'4 8.9
2017-Oct-09 05:00N 22°33' E 120°19'1 2.5
2017-Oct-09 04:30N 22°34' E 120°19'  
Track history (hours):
 
Tides and Currents Weather Stations Pressure Air Temp Water Temp Dewpoint Dewpoint Depression Visibility Wind Speed Wind Dir Waves Ship Positions

OOCL Genoa

Last reported at 2017-Oct-18 23:28 UTC. Time now 2017-Oct-18 23:58 UTC.
Position N 22°35' E 114°17'.

Length 334 m; draft 10.3 m.

Type: Cargo ship. MMSI: 477454900.

Date/timePositionNaut miles runAvg speedWind from/ knotsBaromVisibWave heightAir tempDewpointWater temp
2017-Oct-18 23:28N 22°35' E 114°17'0 0.0
2017-Oct-18 22:58N 22°35' E 114°17'0 0.0
2017-Oct-18 22:28N 22°35' E 114°17'0 0.1
2017-Oct-18 21:58N 22°35' E 114°17'0 0.1
2017-Oct-18 21:28N 22°35' E 114°17'0 0.1
2017-Oct-18 20:58N 22°35' E 114°17'0 0.1
2017-Oct-18 20:28N 22°35' E 114°17'0 0.0
2017-Oct-18 19:55N 22°35' E 114°17'0 0.0
2017-Oct-18 19:28N 22°35' E 114°17'0 0.1
2017-Oct-18 18:58N 22°35' E 114°17'0 0.1
2017-Oct-18 18:25N 22°35' E 114°17'0 0.1
2017-Oct-18 17:58N 22°35' E 114°17'0 0.1
2017-Oct-18 17:28N 22°35' E 114°17'0 0.1
2017-Oct-18 16:58N 22°35' E 114°17'0 0.0
2017-Oct-18 16:25N 22°35' E 114°17'0 0.0
2017-Oct-18 15:58N 22°35' E 114°17'0 0.0
2017-Oct-18 15:28N 22°35' E 114°17'0 0.1
2017-Oct-18 14:58N 22°35' E 114°17'0 0.0
2017-Oct-18 13:58N 22°35' E 114°17'0 0.0
2017-Oct-18 13:28N 22°35' E 114°17'0 0.0
2017-Oct-18 12:58N 22°35' E 114°17'0 0.1
2017-Oct-18 12:28N 22°35' E 114°17'0 0.1
2017-Oct-18 11:58N 22°35' E 114°17'0 0.1
2017-Oct-18 11:30N 22°35' E 114°17'2 3.1
2017-Oct-18 11:00N 22°34' E 114°18'510.1
2017-Oct-18 10:30N 22°33' E 114°23'611.9
2017-Oct-18 10:01N 22°28' E 114°27'4 8.3
2017-Oct-18 09:30N 22°24' E 114°27'5 9.6
2017-Oct-18 09:00N 22°19' E 114°28'510.4
2017-Oct-18 08:30N 22°14' E 114°25'510.8
2017-Oct-18 08:00N 22°09' E 114°24'510.2
2017-Oct-18 07:30N 22°06' E 114°19'2 0.2
2017-Oct-17 22:38N 22°05' E 114°18'18 8.3
2017-Oct-17 20:30N 22°20' E 114°07'7 0.5
2017-Oct-17 04:58N 22°21' E 113°60'711.0
2017-Oct-17 04:22N 22°24' E 113°53'3 5.2
2017-Oct-17 03:42N 22°27' E 113°53'0 0.0
2017-Oct-16 18:16N 22°27' E 113°53'0 0.1
2017-Oct-16 17:19N 22°27' E 113°53'0 1.1
2017-Oct-16 16:59N 22°27' E 113°53'3 6.4
2017-Oct-16 16:30N 22°24' E 113°54'  
2017-Oct-09 06:47N 22°28' E 119°50'518.3
2017-Oct-09 06:30N 22°30' E 119°55'918.6
2017-Oct-09 06:00N 22°32' E 120°04'918.9
2017-Oct-09 05:30N 22°33' E 120°15'4 8.9
2017-Oct-09 05:00N 22°33' E 120°19'1 2.5
2017-Oct-09 04:30N 22°34' E 120°19'  

Dump ship's entire track history